sensor_id;sensor_type;location;lat;lon;timestamp;temperature;humidity
8214;DHT22;4148;47.974;7.824;2024-01-16T00:00:15;-3.00;79.30
8214;DHT22;4148;47.974;7.824;2024-01-16T00:02:43;-3.00;94.50
8214;DHT22;4148;47.974;7.824;2024-01-16T00:05:11;-3.10;99.90
8214;DHT22;4148;47.974;7.824;2024-01-16T00:07:40;-3.20;99.90
8214;DHT22;4148;47.974;7.824;2024-01-16T00:10:08;-3.20;99.90
8214;DHT22;4148;47.974;7.824;2024-01-16T00:12:36;-3.20;99.90
8214;DHT22;4148;47.974;7.824;2024-01-16T00:15:05;-3.20;99.90
8214;DHT22;4148;47.974;7.824;2024-01-16T00:17:33;-3.30;99.90
8214;DHT22;4148;47.974;7.824;2024-01-16T00:20:01;-3.20;99.90
8214;DHT22;4148;47.974;7.824;2024-01-16T00:22:31;-3.10;99.90
8214;DHT22;4148;47.974;7.824;2024-01-16T00:25:01;-3.10;99.90
8214;DHT22;4148;47.974;7.824;2024-01-16T00:27:28;-3.10;73.00
8214;DHT22;4148;47.974;7.824;2024-01-16T00:29:56;-3.10;99.90
8214;DHT22;4148;47.974;7.824;2024-01-16T00:32:24;-3.00;99.90
8214;DHT22;4148;47.974;7.824;2024-01-16T00:34:53;-3.10;99.90
8214;DHT22;4148;47.974;7.824;2024-01-16T00:37:20;-2.90;99.90
8214;DHT22;4148;47.974;7.824;2024-01-16T00:39:49;-2.90;99.90
8214;DHT22;4148;47.974;7.824;2024-01-16T00:42:18;-2.80;99.70
8214;DHT22;4148;47.974;7.824;2024-01-16T00:44:46;-2.80;1.00
8214;DHT22;4148;47.974;7.824;2024-01-16T00:47:14;-2.80;99.90
8214;DHT22;4148;47.974;7.824;2024-01-16T00:49:42;-2.90;99.90
8214;DHT22;4148;47.974;7.824;2024-01-16T00:52:10;-2.90;99.90
8214;DHT22;4148;47.974;7.824;2024-01-16T00:54:38;-2.80;1.00
8214;DHT22;4148;47.974;7.824;2024-01-16T00:57:06;-3.00;1.00
8214;DHT22;4148;47.974;7.824;2024-01-16T00:59:36;-3.00;4.60
8214;DHT22;4148;47.974;7.824;2024-01-16T01:02:04;-3.00;1.00
8214;DHT22;4148;47.974;7.824;2024-01-16T01:04:32;-3.10;75.90
8214;DHT22;4148;47.974;7.824;2024-01-16T01:07:01;-3.20;93.40
8214;DHT22;4148;47.974;7.824;2024-01-16T01:09:29;-3.30;1.00
8214;DHT22;4148;47.974;7.824;2024-01-16T01:11:57;-3.40;99.90
8214;DHT22;4148;47.974;7.824;2024-01-16T01:14:25;-3.50;99.90
8214;DHT22;4148;47.974;7.824;2024-01-16T01:16:57;-3.50;99.90
8214;DHT22;4148;47.974;7.824;2024-01-16T01:19:25;-3.50;99.90
8214;DHT22;4148;47.974;7.824;2024-01-16T01:21:53;-3.50;99.90
8214;DHT22;4148;47.974;7.824;2024-01-16T01:24:21;-3.50;99.90
8214;DHT22;4148;47.974;7.824;2024-01-16T01:26:48;-3.50;99.90
8214;DHT22;4148;47.974;7.824;2024-01-16T01:29:16;-3.60;99.90
8214;DHT22;4148;47.974;7.824;2024-01-16T01:31:46;-3.70;99.90
8214;DHT22;4148;47.974;7.824;2024-01-16T01:34:16;-3.80;99.90
8214;DHT22;4148;47.974;7.824;2024-01-16T01:36:44;-3.80;1.00
8214;DHT22;4148;47.974;7.824;2024-01-16T01:39:12;-3.70;99.90
8214;DHT22;4148;47.974;7.824;2024-01-16T01:41:40;-3.80;99.90
8214;DHT22;4148;47.974;7.824;2024-01-16T01:44:08;-3.80;1.00
8214;DHT22;4148;47.974;7.824;2024-01-16T01:46:43;-3.80;1.00
8214;DHT22;4148;47.974;7.824;2024-01-16T01:49:12;-3.80;99.90
8214;DHT22;4148;47.974;7.824;2024-01-16T01:51:42;-3.80;99.90
8214;DHT22;4148;47.974;7.824;2024-01-16T01:54:11;-3.70;99.90
8214;DHT22;4148;47.974;7.824;2024-01-16T01:56:42;-3.70;1.00
8214;DHT22;4148;47.974;7.824;2024-01-16T01:59:13;-3.60;1.00
8214;DHT22;4148;47.974;7.824;2024-01-16T02:01:42;-3.70;23.70
8214;DHT22;4148;47.974;7.824;2024-01-16T02:04:10;-3.70;99.90
8214;DHT22;4148;47.974;7.824;2024-01-16T02:06:41;-3.70;1.00
8214;DHT22;4148;47.974;7.824;2024-01-16T02:09:11;-3.90;1.00
8214;DHT22;4148;47.974;7.824;2024-01-16T02:11:40;-3.90;1.00
8214;DHT22;4148;47.974;7.824;2024-01-16T02:14:08;-3.90;99.90
8214;DHT22;4148;47.974;7.824;2024-01-16T02:16:37;-4.00;1.00
8214;DHT22;4148;47.974;7.824;2024-01-16T02:19:06;-4.00;1.00
8214;DHT22;4148;47.974;7.824;2024-01-16T02:21:37;-4.30;1.00
8214;DHT22;4148;47.974;7.824;2024-01-16T02:24:07;-4.30;1.00
8214;DHT22;4148;47.974;7.824;2024-01-16T02:26:36;-4.30;1.00
8214;DHT22;4148;47.974;7.824;2024-01-16T02:29:04;-4.30;99.90
8214;DHT22;4148;47.974;7.824;2024-01-16T02:31:32;-4.20;1.00
8214;DHT22;4148;47.974;7.824;2024-01-16T02:34:00;-4.10;99.90
8214;DHT22;4148;47.974;7.824;2024-01-16T02:36:31;-4.10;99.90
8214;DHT22;4148;47.974;7.824;2024-01-16T02:38:58;-4.10;99.90
8214;DHT22;4148;47.974;7.824;2024-01-16T02:41:28;-4.30;1.00
8214;DHT22;4148;47.974;7.824;2024-01-16T02:43:56;-4.20;1.00
8214;DHT22;4148;47.974;7.824;2024-01-16T02:46:24;-4.20;99.90
8214;DHT22;4148;47.974;7.824;2024-01-16T02:48:52;-4.20;1.00
8214;DHT22;4148;47.974;7.824;2024-01-16T02:51:19;-4.20;99.90
8214;DHT22;4148;47.974;7.824;2024-01-16T02:53:47;-4.40;1.00
8214;DHT22;4148;47.974;7.824;2024-01-16T02:56:15;-4.60;44.70
8214;DHT22;4148;47.974;7.824;2024-01-16T02:58:45;-4.50;1.00
8214;DHT22;4148;47.974;7.824;2024-01-16T03:01:14;-4.40;1.00
8214;DHT22;4148;47.974;7.824;2024-01-16T03:03:42;-4.40;99.90
8214;DHT22;4148;47.974;7.824;2024-01-16T03:06:10;-4.30;99.90
8214;DHT22;4148;47.974;7.824;2024-01-16T03:08:48;-4.40;1.00
8214;DHT22;4148;47.974;7.824;2024-01-16T03:11:16;-4.50;1.00
8214;DHT22;4148;47.974;7.824;2024-01-16T03:13:46;-4.60;99.90
8214;DHT22;4148;47.974;7.824;2024-01-16T03:16:15;-4.50;58.50
8214;DHT22;4148;47.974;7.824;2024-01-16T03:18:43;-4.70;99.90
8214;DHT22;4148;47.974;7.824;2024-01-16T03:21:13;-4.70;99.90
8214;DHT22;4148;47.974;7.824;2024-01-16T03:23:41;-4.70;1.00
8214;DHT22;4148;47.974;7.824;2024-01-16T03:26:12;-4.60;99.90
8214;DHT22;4148;47.974;7.824;2024-01-16T03:28:40;-4.30;1.00
8214;DHT22;4148;47.974;7.824;2024-01-16T03:31:10;-4.40;99.90
8214;DHT22;4148;47.974;7.824;2024-01-16T03:33:39;-4.50;99.90
8214;DHT22;4148;47.974;7.824;2024-01-16T03:36:10;-4.60;99.90
8214;DHT22;4148;47.974;7.824;2024-01-16T03:38:39;-4.50;99.90
8214;DHT22;4148;47.974;7.824;2024-01-16T03:41:07;-4.60;1.00
8214;DHT22;4148;47.974;7.824;2024-01-16T03:43:35;-4.60;99.90
8214;DHT22;4148;47.974;7.824;2024-01-16T03:46:03;-4.50;1.00
8214;DHT22;4148;47.974;7.824;2024-01-16T03:48:33;-4.50;1.00
8214;DHT22;4148;47.974;7.824;2024-01-16T03:51:01;-4.60;1.00
8214;DHT22;4148;47.974;7.824;2024-01-16T03:53:29;-4.60;99.90
8214;DHT22;4148;47.974;7.824;2024-01-16T03:55:57;-4.60;1.00
8214;DHT22;4148;47.974;7.824;2024-01-16T03:58:25;-4.60;99.90
8214;DHT22;4148;47.974;7.824;2024-01-16T04:00:53;-4.60;1.00
8214;DHT22;4148;47.974;7.824;2024-01-16T04:03:20;-4.40;99.90
8214;DHT22;4148;47.974;7.824;2024-01-16T04:05:50;-4.40;99.90
8214;DHT22;4148;47.974;7.824;2024-01-16T04:08:18;-4.40;1.00
8214;DHT22;4148;47.974;7.824;2024-01-16T04:10:46;-4.50;1.00
8214;DHT22;4148;47.974;7.824;2024-01-16T04:13:14;-4.60;99.90
8214;DHT22;4148;47.974;7.824;2024-01-16T04:15:42;-4.60;99.90
8214;DHT22;4148;47.974;7.824;2024-01-16T04:18:10;-4.40;1.00
8214;DHT22;4148;47.974;7.824;2024-01-16T04:20:39;-4.30;1.00
8214;DHT22;4148;47.974;7.824;2024-01-16T04:23:08;-4.30;1.00
8214;DHT22;4148;47.974;7.824;2024-01-16T04:25:38;-4.40;99.90
8214;DHT22;4148;47.974;7.824;2024-01-16T04:28:06;-4.30;1.00
8214;DHT22;4148;47.974;7.824;2024-01-16T04:30:34;-4.20;1.00
8214;DHT22;4148;47.974;7.824;2024-01-16T04:33:02;-4.30;99.90
8214;DHT22;4148;47.974;7.824;2024-01-16T04:35:31;-4.30;1.00
8214;DHT22;4148;47.974;7.824;2024-01-16T04:37:58;-4.50;1.00
8214;DHT22;4148;47.974;7.824;2024-01-16T04:40:28;-4.60;99.90
8214;DHT22;4148;47.974;7.824;2024-01-16T04:42:55;-4.80;75.10
8214;DHT22;4148;47.974;7.824;2024-01-16T04:45:23;-4.90;1.00
8214;DHT22;4148;47.974;7.824;2024-01-16T04:47:51;-4.70;33.80
8214;DHT22;4148;47.974;7.824;2024-01-16T04:50:19;-4.70;1.00
8214;DHT22;4148;47.974;7.824;2024-01-16T04:52:47;-4.90;1.00
8214;DHT22;4148;47.974;7.824;2024-01-16T04:55:19;-5.00;99.90
8214;DHT22;4148;47.974;7.824;2024-01-16T04:57:48;-4.80;1.00
8214;DHT22;4148;47.974;7.824;2024-01-16T05:00:17;-4.80;99.90
8214;DHT22;4148;47.974;7.824;2024-01-16T05:02:44;-4.80;1.00
8214;DHT22;4148;47.974;7.824;2024-01-16T05:05:13;-4.80;99.90
8214;DHT22;4148;47.974;7.824;2024-01-16T05:07:41;-4.90;99.90
8214;DHT22;4148;47.974;7.824;2024-01-16T05:10:10;-5.00;99.90
8214;DHT22;4148;47.974;7.824;2024-01-16T05:12:39;-5.00;1.00
8214;DHT22;4148;47.974;7.824;2024-01-16T05:15:09;-4.90;1.00
8214;DHT22;4148;47.974;7.824;2024-01-16T05:17:38;-5.00;1.00
8214;DHT22;4148;47.974;7.824;2024-01-16T05:20:07;-5.00;12.40
8214;DHT22;4148;47.974;7.824;2024-01-16T05:22:37;-5.00;1.00
8214;DHT22;4148;47.974;7.824;2024-01-16T05:25:06;-5.00;1.00
8214;DHT22;4148;47.974;7.824;2024-01-16T05:27:34;-4.80;31.60
8214;DHT22;4148;47.974;7.824;2024-01-16T05:30:03;-4.80;99.90
8214;DHT22;4148;47.974;7.824;2024-01-16T05:32:32;-4.90;1.00
8214;DHT22;4148;47.974;7.824;2024-01-16T05:35:01;-5.00;1.00
8214;DHT22;4148;47.974;7.824;2024-01-16T05:37:29;-5.10;1.00
8214;DHT22;4148;47.974;7.824;2024-01-16T05:39:57;-5.00;1.00
8214;DHT22;4148;47.974;7.824;2024-01-16T05:42:25;-4.80;1.00
8214;DHT22;4148;47.974;7.824;2024-01-16T05:44:53;-4.90;99.90
8214;DHT22;4148;47.974;7.824;2024-01-16T05:47:21;-5.00;1.00
8214;DHT22;4148;47.974;7.824;2024-01-16T05:49:52;-5.10;28.90
8214;DHT22;4148;47.974;7.824;2024-01-16T05:52:20;-5.20;99.90
8214;DHT22;4148;47.974;7.824;2024-01-16T05:54:48;-5.30;99.90
8214;DHT22;4148;47.974;7.824;2024-01-16T05:57:15;-5.20;99.90
8214;DHT22;4148;47.974;7.824;2024-01-16T05:59:43;-5.10;99.90
8214;DHT22;4148;47.974;7.824;2024-01-16T06:02:11;-5.10;99.90
8214;DHT22;4148;47.974;7.824;2024-01-16T06:04:38;-5.10;99.90
8214;DHT22;4148;47.974;7.824;2024-01-16T06:07:08;-4.80;99.90
8214;DHT22;4148;47.974;7.824;2024-01-16T06:09:38;-4.70;97.20
8214;DHT22;4148;47.974;7.824;2024-01-16T06:12:07;-4.80;11.30
8214;DHT22;4148;47.974;7.824;2024-01-16T06:14:35;-4.90;99.90
8214;DHT22;4148;47.974;7.824;2024-01-16T06:17:03;-5.00;1.00
8214;DHT22;4148;47.974;7.824;2024-01-16T06:19:32;-5.10;21.70
8214;DHT22;4148;47.974;7.824;2024-01-16T06:22:00;-5.10;99.90
8214;DHT22;4148;47.974;7.824;2024-01-16T06:24:30;-5.10;99.90
8214;DHT22;4148;47.974;7.824;2024-01-16T06:27:04;-5.20;99.20
8214;DHT22;4148;47.974;7.824;2024-01-16T06:29:32;-5.30;99.90
8214;DHT22;4148;47.974;7.824;2024-01-16T06:32:01;-5.30;99.90
8214;DHT22;4148;47.974;7.824;2024-01-16T06:34:29;-5.40;99.90
8214;DHT22;4148;47.974;7.824;2024-01-16T06:36:57;-5.50;99.90
8214;DHT22;4148;47.974;7.824;2024-01-16T06:39:25;-5.30;99.90
8214;DHT22;4148;47.974;7.824;2024-01-16T06:41:54;-5.00;99.90
8214;DHT22;4148;47.974;7.824;2024-01-16T06:44:22;-4.90;99.90
8214;DHT22;4148;47.974;7.824;2024-01-16T06:46:50;-4.70;1.00
8214;DHT22;4148;47.974;7.824;2024-01-16T06:49:18;-4.90;99.90
8214;DHT22;4148;47.974;7.824;2024-01-16T06:51:46;-5.00;99.90
8214;DHT22;4148;47.974;7.824;2024-01-16T06:54:14;-5.10;1.00
8214;DHT22;4148;47.974;7.824;2024-01-16T06:56:42;-5.10;71.80
8214;DHT22;4148;47.974;7.824;2024-01-16T06:59:11;-4.90;99.90
8214;DHT22;4148;47.974;7.824;2024-01-16T07:01:39;-5.10;1.00
8214;DHT22;4148;47.974;7.824;2024-01-16T07:04:07;-5.20;99.90
8214;DHT22;4148;47.974;7.824;2024-01-16T07:06:35;-5.40;1.00
8214;DHT22;4148;47.974;7.824;2024-01-16T07:09:03;-5.40;1.00
8214;DHT22;4148;47.974;7.824;2024-01-16T07:11:32;-5.50;1.00
8214;DHT22;4148;47.974;7.824;2024-01-16T07:14:00;-5.50;99.90
8214;DHT22;4148;47.974;7.824;2024-01-16T07:16:29;-5.70;99.90
8214;DHT22;4148;47.974;7.824;2024-01-16T07:18:57;-5.80;99.90
8214;DHT22;4148;47.974;7.824;2024-01-16T07:21:25;-5.80;99.90
8214;DHT22;4148;47.974;7.824;2024-01-16T07:23:54;-5.80;99.90
8214;DHT22;4148;47.974;7.824;2024-01-16T07:26:23;-5.90;99.90
8214;DHT22;4148;47.974;7.824;2024-01-16T07:28:51;-5.80;99.90
8214;DHT22;4148;47.974;7.824;2024-01-16T07:31:19;-5.70;99.90
8214;DHT22;4148;47.974;7.824;2024-01-16T07:33:49;-5.70;99.90
8214;DHT22;4148;47.974;7.824;2024-01-16T07:36:18;-5.60;99.90
8214;DHT22;4148;47.974;7.824;2024-01-16T07:38:45;-5.50;99.90
8214;DHT22;4148;47.974;7.824;2024-01-16T07:41:14;-5.50;99.90
8214;DHT22;4148;47.974;7.824;2024-01-16T07:43:42;-5.50;99.90
8214;DHT22;4148;47.974;7.824;2024-01-16T07:46:15;-5.60;99.90
8214;DHT22;4148;47.974;7.824;2024-01-16T07:48:43;-5.60;99.90
8214;DHT22;4148;47.974;7.824;2024-01-16T07:51:12;-5.60;99.90
8214;DHT22;4148;47.974;7.824;2024-01-16T07:53:40;-5.60;99.90
8214;DHT22;4148;47.974;7.824;2024-01-16T07:56:08;-5.60;99.90
8214;DHT22;4148;47.974;7.824;2024-01-16T07:58:37;-5.60;99.90
8214;DHT22;4148;47.974;7.824;2024-01-16T08:01:05;-5.60;99.90
8214;DHT22;4148;47.974;7.824;2024-01-16T08:03:33;-5.30;99.90
8214;DHT22;4148;47.974;7.824;2024-01-16T08:06:01;-5.10;1.00
8214;DHT22;4148;47.974;7.824;2024-01-16T08:08:31;-5.20;99.90
8214;DHT22;4148;47.974;7.824;2024-01-16T08:11:00;-5.20;1.00
8214;DHT22;4148;47.974;7.824;2024-01-16T08:13:28;-5.10;99.90
8214;DHT22;4148;47.974;7.824;2024-01-16T08:15:56;-5.00;99.90
8214;DHT22;4148;47.974;7.824;2024-01-16T08:18:24;-5.10;1.00
8214;DHT22;4148;47.974;7.824;2024-01-16T08:20:53;-5.10;1.00
8214;DHT22;4148;47.974;7.824;2024-01-16T08:23:21;-5.10;99.90
8214;DHT22;4148;47.974;7.824;2024-01-16T08:25:51;-5.10;99.90
8214;DHT22;4148;47.974;7.824;2024-01-16T08:28:18;-5.10;99.90
8214;DHT22;4148;47.974;7.824;2024-01-16T08:30:49;-4.90;90.40
8214;DHT22;4148;47.974;7.824;2024-01-16T08:33:17;-4.70;99.90
8214;DHT22;4148;47.974;7.824;2024-01-16T08:35:56;-4.70;1.00
8214;DHT22;4148;47.974;7.824;2024-01-16T08:38:24;-4.70;99.90
8214;DHT22;4148;47.974;7.824;2024-01-16T08:40:54;-4.70;1.00
8214;DHT22;4148;47.974;7.824;2024-01-16T08:43:21;-4.60;37.40
8214;DHT22;4148;47.974;7.824;2024-01-16T08:45:49;-4.40;54.70
8214;DHT22;4148;47.974;7.824;2024-01-16T08:48:17;-4.30;1.00
8214;DHT22;4148;47.974;7.824;2024-01-16T08:50:45;-4.30;1.00
8214;DHT22;4148;47.974;7.824;2024-01-16T08:53:13;-4.10;63.80
8214;DHT22;4148;47.974;7.824;2024-01-16T08:55:41;-4.00;99.90
8214;DHT22;4148;47.974;7.824;2024-01-16T08:58:10;-4.00;1.00
8214;DHT22;4148;47.974;7.824;2024-01-16T09:00:38;-3.90;99.90
8214;DHT22;4148;47.974;7.824;2024-01-16T09:03:06;-3.80;99.90
8214;DHT22;4148;47.974;7.824;2024-01-16T09:05:35;-3.70;1.00
8214;DHT22;4148;47.974;7.824;2024-01-16T09:08:06;-3.60;1.00
8214;DHT22;4148;47.974;7.824;2024-01-16T09:10:39;-3.60;36.00
8214;DHT22;4148;47.974;7.824;2024-01-16T09:13:06;-3.60;99.90
8214;DHT22;4148;47.974;7.824;2024-01-16T09:15:36;-3.50;1.00
8214;DHT22;4148;47.974;7.824;2024-01-16T09:18:04;-3.50;45.30
8214;DHT22;4148;47.974;7.824;2024-01-16T09:20:32;-3.40;1.00
8214;DHT22;4148;47.974;7.824;2024-01-16T09:23:01;-3.30;1.00
8214;DHT22;4148;47.974;7.824;2024-01-16T09:25:29;-3.20;1.00
8214;DHT22;4148;47.974;7.824;2024-01-16T09:27:57;-3.00;99.90
8214;DHT22;4148;47.974;7.824;2024-01-16T09:30:24;-2.90;99.90
8214;DHT22;4148;47.974;7.824;2024-01-16T09:32:54;-2.70;99.90
8214;DHT22;4148;47.974;7.824;2024-01-16T09:35:22;-2.30;1.00
8214;DHT22;4148;47.974;7.824;2024-01-16T09:37:49;-1.80;1.00
8214;DHT22;4148;47.974;7.824;2024-01-16T09:40:18;-1.40;1.00
8214;DHT22;4148;47.974;7.824;2024-01-16T09:42:46;-1.00;1.00
8214;DHT22;4148;47.974;7.824;2024-01-16T09:45:20;-0.60;99.90
8214;DHT22;4148;47.974;7.824;2024-01-16T09:47:50;-0.20;99.90
8214;DHT22;4148;47.974;7.824;2024-01-16T09:50:20;0.00;8.90
8214;DHT22;4148;47.974;7.824;2024-01-16T09:52:48;0.20;1.00
8214;DHT22;4148;47.974;7.824;2024-01-16T09:55:16;0.50;1.00
8214;DHT22;4148;47.974;7.824;2024-01-16T09:57:45;0.90;1.00
8214;DHT22;4148;47.974;7.824;2024-01-16T10:00:14;1.20;1.00
8214;DHT22;4148;47.974;7.824;2024-01-16T10:02:42;1.40;1.00
8214;DHT22;4148;47.974;7.824;2024-01-16T10:05:11;1.70;1.00
8214;DHT22;4148;47.974;7.824;2024-01-16T10:07:41;1.50;1.00
8214;DHT22;4148;47.974;7.824;2024-01-16T10:10:11;1.10;1.00
8214;DHT22;4148;47.974;7.824;2024-01-16T10:12:40;1.10;1.00
8214;DHT22;4148;47.974;7.824;2024-01-16T10:15:09;1.20;1.00
8214;DHT22;4148;47.974;7.824;2024-01-16T10:17:37;1.30;1.00
8214;DHT22;4148;47.974;7.824;2024-01-16T10:20:07;1.40;1.00
8214;DHT22;4148;47.974;7.824;2024-01-16T10:22:42;1.60;1.00
8214;DHT22;4148;47.974;7.824;2024-01-16T10:25:19;1.70;1.00
8214;DHT22;4148;47.974;7.824;2024-01-16T10:27:49;1.70;1.00
8214;DHT22;4148;47.974;7.824;2024-01-16T10:30:21;1.80;1.00
8214;DHT22;4148;47.974;7.824;2024-01-16T10:32:50;2.00;1.00
8214;DHT22;4148;47.974;7.824;2024-01-16T10:35:18;2.20;1.00
8214;DHT22;4148;47.974;7.824;2024-01-16T10:37:50;2.30;99.90
8214;DHT22;4148;47.974;7.824;2024-01-16T10:40:19;2.30;99.90
8214;DHT22;4148;47.974;7.824;2024-01-16T10:42:58;2.40;99.90
8214;DHT22;4148;47.974;7.824;2024-01-16T10:45:26;2.60;99.90
8214;DHT22;4148;47.974;7.824;2024-01-16T10:48:00;2.60;99.90
8214;DHT22;4148;47.974;7.824;2024-01-16T10:50:30;2.90;99.90
8214;DHT22;4148;47.974;7.824;2024-01-16T10:53:04;3.30;99.90
8214;DHT22;4148;47.974;7.824;2024-01-16T10:55:37;3.80;99.90
8214;DHT22;4148;47.974;7.824;2024-01-16T10:58:06;3.90;99.90
8214;DHT22;4148;47.974;7.824;2024-01-16T11:03:11;4.20;99.90
8214;DHT22;4148;47.974;7.824;2024-01-16T11:05:40;4.50;99.90
8214;DHT22;4148;47.974;7.824;2024-01-16T11:08:11;4.60;99.90
8214;DHT22;4148;47.974;7.824;2024-01-16T11:10:45;4.60;99.90
8214;DHT22;4148;47.974;7.824;2024-01-16T11:13:14;4.30;99.90
8214;DHT22;4148;47.974;7.824;2024-01-16T11:15:42;4.20;99.90
8214;DHT22;4148;47.974;7.824;2024-01-16T11:18:10;4.10;99.90
8214;DHT22;4148;47.974;7.824;2024-01-16T11:20:41;3.70;99.90
8214;DHT22;4148;47.974;7.824;2024-01-16T11:23:14;3.40;99.90
8214;DHT22;4148;47.974;7.824;2024-01-16T11:25:43;3.20;99.90
8214;DHT22;4148;47.974;7.824;2024-01-16T11:28:12;3.40;99.90
8214;DHT22;4148;47.974;7.824;2024-01-16T11:30:41;3.70;99.90
8214;DHT22;4148;47.974;7.824;2024-01-16T11:33:41;3.70;99.90
8214;DHT22;4148;47.974;7.824;2024-01-16T11:36:49;3.70;99.90
8214;DHT22;4148;47.974;7.824;2024-01-16T11:39:21;4.20;99.90
8214;DHT22;4148;47.974;7.824;2024-01-16T11:41:53;4.30;99.90
8214;DHT22;4148;47.974;7.824;2024-01-16T11:44:42;4.30;99.90
8214;DHT22;4148;47.974;7.824;2024-01-16T11:47:17;4.20;99.90
8214;DHT22;4148;47.974;7.824;2024-01-16T11:49:46;4.20;99.90
8214;DHT22;4148;47.974;7.824;2024-01-16T11:52:14;4.70;99.90
8214;DHT22;4148;47.974;7.824;2024-01-16T11:54:43;5.00;99.90
8214;DHT22;4148;47.974;7.824;2024-01-16T12:00:18;4.90;99.90
8214;DHT22;4148;47.974;7.824;2024-01-16T12:02:51;4.80;99.90
8214;DHT22;4148;47.974;7.824;2024-01-16T12:05:21;5.10;99.90
8214;DHT22;4148;47.974;7.824;2024-01-16T12:07:50;5.30;99.90
8214;DHT22;4148;47.974;7.824;2024-01-16T12:10:21;5.40;99.90
8214;DHT22;4148;47.974;7.824;2024-01-16T12:12:50;5.40;99.90
8214;DHT22;4148;47.974;7.824;2024-01-16T12:15:20;5.50;99.90
8214;DHT22;4148;47.974;7.824;2024-01-16T12:17:55;5.60;99.90
8214;DHT22;4148;47.974;7.824;2024-01-16T12:20:24;5.60;99.90
8214;DHT22;4148;47.974;7.824;2024-01-16T12:22:54;5.70;99.90
8214;DHT22;4148;47.974;7.824;2024-01-16T12:25:23;5.80;99.90
8214;DHT22;4148;47.974;7.824;2024-01-16T12:28:12;5.40;99.90
8214;DHT22;4148;47.974;7.824;2024-01-16T12:30:57;5.40;99.90
8214;DHT22;4148;47.974;7.824;2024-01-16T12:33:26;5.30;99.90
8214;DHT22;4148;47.974;7.824;2024-01-16T12:36:01;5.10;99.90
8214;DHT22;4148;47.974;7.824;2024-01-16T12:38:30;4.70;99.90
8214;DHT22;4148;47.974;7.824;2024-01-16T12:41:00;4.30;99.90
8214;DHT22;4148;47.974;7.824;2024-01-16T12:45:59;3.90;99.90
8214;DHT22;4148;47.974;7.824;2024-01-16T12:48:27;3.70;99.90
8214;DHT22;4148;47.974;7.824;2024-01-16T12:50:58;3.50;99.90
8214;DHT22;4148;47.974;7.824;2024-01-16T12:53:27;3.40;99.90
8214;DHT22;4148;47.974;7.824;2024-01-16T12:56:01;3.40;99.90
8214;DHT22;4148;47.974;7.824;2024-01-16T12:58:34;3.20;99.90
8214;DHT22;4148;47.974;7.824;2024-01-16T13:01:21;3.00;99.90
8214;DHT22;4148;47.974;7.824;2024-01-16T13:04:05;2.90;99.90
8214;DHT22;4148;47.974;7.824;2024-01-16T13:06:33;2.80;99.90
8214;DHT22;4148;47.974;7.824;2024-01-16T13:09:05;2.80;99.90
8214;DHT22;4148;47.974;7.824;2024-01-16T13:11:50;2.70;99.90
8214;DHT22;4148;47.974;7.824;2024-01-16T13:14:19;2.60;99.90
8214;DHT22;4148;47.974;7.824;2024-01-16T13:16:49;2.60;99.90
8214;DHT22;4148;47.974;7.824;2024-01-16T13:19:17;2.60;99.90
8214;DHT22;4148;47.974;7.824;2024-01-16T13:21:46;2.50;99.90
8214;DHT22;4148;47.974;7.824;2024-01-16T13:24:14;2.40;99.90
8214;DHT22;4148;47.974;7.824;2024-01-16T13:26:44;2.30;99.90
8214;DHT22;4148;47.974;7.824;2024-01-16T13:29:13;2.20;99.90
8214;DHT22;4148;47.974;7.824;2024-01-16T13:31:42;2.10;99.90
8214;DHT22;4148;47.974;7.824;2024-01-16T13:34:10;2.10;99.90
8214;DHT22;4148;47.974;7.824;2024-01-16T13:36:39;2.00;99.90
8214;DHT22;4148;47.974;7.824;2024-01-16T13:39:26;2.00;99.90
8214;DHT22;4148;47.974;7.824;2024-01-16T13:41:54;1.90;99.90
8214;DHT22;4148;47.974;7.824;2024-01-16T13:44:24;1.90;99.90
8214;DHT22;4148;47.974;7.824;2024-01-16T13:46:52;1.90;99.90
8214;DHT22;4148;47.974;7.824;2024-01-16T13:49:33;1.90;99.90
8214;DHT22;4148;47.974;7.824;2024-01-16T13:52:01;1.80;99.90
8214;DHT22;4148;47.974;7.824;2024-01-16T13:54:30;1.80;99.90
8214;DHT22;4148;47.974;7.824;2024-01-16T13:56:58;1.70;99.90
8214;DHT22;4148;47.974;7.824;2024-01-16T13:59:35;1.80;99.90
8214;DHT22;4148;47.974;7.824;2024-01-16T14:02:03;1.80;99.90
8214;DHT22;4148;47.974;7.824;2024-01-16T14:04:32;1.70;99.90
8214;DHT22;4148;47.974;7.824;2024-01-16T14:07:00;1.70;99.90
8214;DHT22;4148;47.974;7.824;2024-01-16T14:09:40;1.70;99.90
8214;DHT22;4148;47.974;7.824;2024-01-16T14:12:11;1.60;99.90
8214;DHT22;4148;47.974;7.824;2024-01-16T14:14:41;1.60;99.90
8214;DHT22;4148;47.974;7.824;2024-01-16T14:17:09;1.60;99.90
8214;DHT22;4148;47.974;7.824;2024-01-16T14:19:37;1.60;99.90
8214;DHT22;4148;47.974;7.824;2024-01-16T14:22:06;1.50;99.90
8214;DHT22;4148;47.974;7.824;2024-01-16T14:24:34;1.50;99.90
8214;DHT22;4148;47.974;7.824;2024-01-16T14:27:04;1.50;99.90
8214;DHT22;4148;47.974;7.824;2024-01-16T14:29:32;1.40;99.90
8214;DHT22;4148;47.974;7.824;2024-01-16T14:32:03;1.40;99.90
8214;DHT22;4148;47.974;7.824;2024-01-16T14:34:30;1.40;99.90
8214;DHT22;4148;47.974;7.824;2024-01-16T14:36:58;1.30;99.90
8214;DHT22;4148;47.974;7.824;2024-01-16T14:39:27;1.40;99.90
8214;DHT22;4148;47.974;7.824;2024-01-16T14:41:57;1.30;99.90
8214;DHT22;4148;47.974;7.824;2024-01-16T14:44:26;1.20;99.90
8214;DHT22;4148;47.974;7.824;2024-01-16T14:46:54;1.20;99.90
8214;DHT22;4148;47.974;7.824;2024-01-16T14:49:23;1.10;99.90
8214;DHT22;4148;47.974;7.824;2024-01-16T14:51:51;1.10;99.90
8214;DHT22;4148;47.974;7.824;2024-01-16T14:54:19;1.10;99.90
8214;DHT22;4148;47.974;7.824;2024-01-16T14:56:47;1.20;99.90
8214;DHT22;4148;47.974;7.824;2024-01-16T14:59:15;1.00;99.90
8214;DHT22;4148;47.974;7.824;2024-01-16T15:01:44;0.90;99.90
8214;DHT22;4148;47.974;7.824;2024-01-16T15:04:12;0.80;99.90
8214;DHT22;4148;47.974;7.824;2024-01-16T15:06:41;0.80;99.90
8214;DHT22;4148;47.974;7.824;2024-01-16T15:09:09;0.70;99.90
8214;DHT22;4148;47.974;7.824;2024-01-16T15:11:39;0.50;99.90
8214;DHT22;4148;47.974;7.824;2024-01-16T15:14:07;0.40;99.90
8214;DHT22;4148;47.974;7.824;2024-01-16T15:16:35;0.50;99.90
8214;DHT22;4148;47.974;7.824;2024-01-16T15:19:03;0.30;99.90
8214;DHT22;4148;47.974;7.824;2024-01-16T15:21:31;0.20;99.90
8214;DHT22;4148;47.974;7.824;2024-01-16T15:24:00;0.10;1.00
8214;DHT22;4148;47.974;7.824;2024-01-16T15:26:28;0.00;99.90
8214;DHT22;4148;47.974;7.824;2024-01-16T15:28:57;-0.20;99.90
8214;DHT22;4148;47.974;7.824;2024-01-16T15:31:26;-0.30;1.00
8214;DHT22;4148;47.974;7.824;2024-01-16T15:33:54;-0.40;1.00
8214;DHT22;4148;47.974;7.824;2024-01-16T15:36:22;-0.50;1.00
8214;DHT22;4148;47.974;7.824;2024-01-16T15:38:50;-0.50;1.00
8214;DHT22;4148;47.974;7.824;2024-01-16T15:41:19;-0.50;1.00
8214;DHT22;4148;47.974;7.824;2024-01-16T15:43:47;-0.60;1.00
8214;DHT22;4148;47.974;7.824;2024-01-16T15:46:15;-0.60;1.00
8214;DHT22;4148;47.974;7.824;2024-01-16T15:48:43;-0.60;1.00
8214;DHT22;4148;47.974;7.824;2024-01-16T15:51:11;-0.60;1.00
8214;DHT22;4148;47.974;7.824;2024-01-16T15:53:39;-0.60;1.00
8214;DHT22;4148;47.974;7.824;2024-01-16T15:56:07;-0.60;1.00
8214;DHT22;4148;47.974;7.824;2024-01-16T15:58:36;-0.60;1.00
8214;DHT22;4148;47.974;7.824;2024-01-16T16:01:04;-0.60;1.00
8214;DHT22;4148;47.974;7.824;2024-01-16T16:03:33;-0.70;1.00
8214;DHT22;4148;47.974;7.824;2024-01-16T16:06:01;-0.70;1.00
8214;DHT22;4148;47.974;7.824;2024-01-16T16:08:32;-0.70;1.00
8214;DHT22;4148;47.974;7.824;2024-01-16T16:11:00;-0.80;1.00
8214;DHT22;4148;47.974;7.824;2024-01-16T16:13:27;-0.80;1.00
8214;DHT22;4148;47.974;7.824;2024-01-16T16:15:59;-1.00;1.00
8214;DHT22;4148;47.974;7.824;2024-01-16T16:18:27;-1.00;1.00
8214;DHT22;4148;47.974;7.824;2024-01-16T16:20:55;-1.00;1.00
8214;DHT22;4148;47.974;7.824;2024-01-16T16:23:23;-1.20;1.00
8214;DHT22;4148;47.974;7.824;2024-01-16T16:25:51;-1.20;1.00
8214;DHT22;4148;47.974;7.824;2024-01-16T16:28:19;-1.30;1.00
8214;DHT22;4148;47.974;7.824;2024-01-16T16:30:47;-1.50;1.00
8214;DHT22;4148;47.974;7.824;2024-01-16T16:33:16;-1.50;1.00